Time;durP1;ratioP1;P1;durP2;ratioP2;P2;SDS_P1;SDS_P2;PMS_P1;PMS_P2;Temp;Humidity;BMP_temperature;BMP_pressure;BME280_temperature;BME280_humidity;BME280_pressure;Samples;Min_cycle;Max_cycle;Signal;HPM_P1;HPM_P2
2022/08/18 00:00:45;;;;;;;41.97;37.43;;;20.70;99.90;;;;;;5062842;28;21015;-81
2022/08/18 00:03:12;;;;;;;42.50;38.13;;;20.70;99.90;;;;;;5062371;28;20452;-81
2022/08/18 00:05:40;;;;;;;42.07;37.50;;;20.60;99.90;;;;;;5069548;28;20491;-81
2022/08/18 00:08:07;;;;;;;43.07;38.73;;;20.60;99.90;;;;;;5071436;28;20443;-81
2022/08/18 00:10:34;;;;;;;42.00;37.60;;;20.60;99.90;;;;;;5071769;28;20506;-83
2022/08/18 00:13:01;;;;;;;41.67;37.47;;;20.60;99.90;;;;;;5071389;28;20520;-82
2022/08/18 00:15:28;;;;;;;40.50;36.27;;;20.60;99.90;;;;;;5071786;28;20483;-81
2022/08/18 00:17:55;;;;;;;40.10;36.10;;;20.60;99.90;;;;;;5072491;28;20471;-82
2022/08/18 00:20:24;;;;;;;40.83;36.53;;;20.50;99.90;;;;;;5057880;28;20496;-82
2022/08/18 00:22:55;;;;;;;40.10;36.00;;;20.50;99.90;;;;;;5054708;28;20460;-81
2022/08/18 00:25:22;;;;;;;42.00;37.83;;;20.50;99.90;;;;;;5056161;28;20448;-83
2022/08/18 00:27:49;;;;;;;43.60;39.00;;;20.50;99.90;;;;;;5056355;28;20551;-82
2022/08/18 00:30:21;;;;;;;40.07;35.70;;;20.50;99.90;;;;;;5053578;28;20540;-82
2022/08/18 00:32:50;;;;;;;40.30;36.40;;;20.40;99.90;;;;;;5052170;28;20487;-83
2022/08/18 00:35:19;;;;;;;39.90;35.70;;;20.40;99.90;;;;;;5055537;28;20913;-81
2022/08/18 00:37:47;;;;;;;40.73;36.60;;;20.40;99.90;;;;;;5055673;28;20459;-82
2022/08/18 00:40:20;;;;;;;42.63;38.03;;;20.40;99.90;;;;;;5055255;28;20582;-83
2022/08/18 00:42:50;;;;;;;40.30;36.13;;;20.40;99.90;;;;;;5055278;28;20452;-82
2022/08/18 00:45:20;;;;;;;42.77;38.27;;;20.30;99.90;;;;;;5055494;28;20457;-82
2022/08/18 00:47:47;;;;;;;39.77;35.53;;;20.30;99.90;;;;;;5056592;28;20448;-82
2022/08/18 00:50:18;;;;;;;39.40;35.30;;;20.30;99.90;;;;;;5055282;28;20547;-81
2022/08/18 00:52:49;;;;;;;42.50;37.90;;;20.30;99.90;;;;;;5054782;28;20539;-80
2022/08/18 00:55:19;;;;;;;42.50;38.10;;;20.30;99.90;;;;;;5054784;28;21019;-82
2022/08/18 00:57:48;;;;;;;40.63;36.23;;;20.30;99.90;;;;;;5055767;28;20535;-82
2022/08/18 01:00:15;;;;;;;40.17;35.77;;;20.30;99.90;;;;;;5054597;28;20511;-81
2022/08/18 01:02:46;;;;;;;40.30;36.10;;;20.30;99.90;;;;;;5055412;28;20487;-81
2022/08/18 01:05:18;;;;;;;43.27;38.70;;;20.30;99.90;;;;;;5055557;28;20479;-81
2022/08/18 01:07:47;;;;;;;41.67;37.37;;;20.20;99.90;;;;;;5066379;28;20459;-79
2022/08/18 01:10:15;;;;;;;40.80;36.57;;;20.20;99.90;;;;;;5057411;28;20884;-81
2022/08/18 01:12:45;;;;;;;41.47;37.17;;;20.20;99.90;;;;;;5052126;28;20448;-81
2022/08/18 01:15:13;;;;;;;43.37;34.90;;;20.20;99.90;;;;;;5054782;28;20484;-82
2022/08/18 01:23:21;;;;;;;41.37;37.17;;;20.10;99.90;;;;;;5054778;28;20455;-81
2022/08/18 01:26:00;;;;;;;41.90;37.40;;;20.10;99.90;;;;;;5063488;28;20479;-79
2022/08/18 01:28:27;;;;;;;40.77;36.37;;;20.10;99.90;;;;;;5055832;28;20497;-81
2022/08/18 01:30:57;;;;;;;43.53;38.87;;;20.10;99.90;;;;;;5054491;28;20507;-81
2022/08/18 01:33:28;;;;;;;42.73;38.13;;;20.10;99.90;;;;;;5054717;28;20462;-81
2022/08/18 01:35:56;;;;;;;43.83;38.93;;;20.10;99.90;;;;;;5058952;28;20460;-80
2022/08/18 01:38:25;;;;;;;41.87;37.53;;;20.10;99.90;;;;;;5057451;28;20534;-80
2022/08/18 01:40:53;;;;;;;45.83;39.90;;;20.10;99.90;;;;;;5057530;28;20855;-80
2022/08/18 01:43:20;;;;;;;44.40;39.70;;;20.10;99.90;;;;;;5057227;28;20467;-80
2022/08/18 01:45:47;;;;;;;46.90;41.90;;;20.10;99.90;;;;;;5057721;28;20530;-81
2022/08/18 01:48:14;;;;;;;46.80;41.93;;;20.10;99.90;;;;;;5057265;28;20455;-80
2022/08/18 01:50:43;;;;;;;42.80;38.27;;;20.10;99.90;;;;;;5057770;28;20538;-82
2022/08/18 01:53:11;;;;;;;45.73;41.03;;;20.10;99.90;;;;;;5056125;28;20464;-81
2022/08/18 01:55:44;;;;;;;45.43;40.63;;;20.10;99.90;;;;;;5057563;28;20463;-81
2022/08/18 01:58:11;;;;;;;43.57;39.00;;;20.10;99.90;;;;;;5057986;28;20486;-81
2022/08/18 02:00:40;;;;;;;46.07;41.17;;;20.10;99.90;;;;;;5057661;28;20574;-80
2022/08/18 02:03:11;;;;;;;46.80;41.90;;;20.10;99.90;;;;;;5056626;28;20509;-81
2022/08/18 02:05:42;;;;;;;45.23;40.50;;;20.10;99.90;;;;;;5057558;28;20456;-81
2022/08/18 02:08:11;;;;;;;48.50;43.20;;;20.00;99.90;;;;;;5056664;28;20459;-81
2022/08/18 02:10:39;;;;;;;46.43;40.73;;;20.00;99.90;;;;;;5057513;28;20573;-81
2022/08/18 02:13:06;;;;;;;47.67;42.50;;;20.00;99.90;;;;;;5056445;28;20542;-81
2022/08/18 02:15:33;;;;;;;45.57;40.57;;;20.00;99.90;;;;;;5056910;28;20566;-82
2022/08/18 02:18:00;;;;;;;49.23;43.67;;;20.00;99.90;;;;;;5057690;28;20531;-80
2022/08/18 02:20:27;;;;;;;47.43;42.23;;;20.00;99.90;;;;;;5056603;28;20505;-81
2022/08/18 02:22:54;;;;;;;47.90;42.90;;;19.90;99.90;;;;;;5055862;28;20550;-82
2022/08/18 02:25:21;;;;;;;49.50;44.20;;;19.90;99.90;;;;;;5057206;28;20536;-81
2022/08/18 02:27:50;;;;;;;47.97;42.50;;;19.90;99.90;;;;;;5056708;28;20506;-81
2022/08/18 02:30:18;;;;;;;47.00;41.90;;;19.90;99.90;;;;;;5057344;28;20440;-82
2022/08/18 02:32:45;;;;;;;48.50;43.30;;;19.90;99.90;;;;;;5041675;28;21009;-80
2022/08/18 02:35:12;;;;;;;45.93;40.70;;;19.90;99.90;;;;;;5057450;28;20450;-81
2022/08/18 02:37:41;;;;;;;44.50;39.27;;;19.80;99.90;;;;;;5056658;28;20490;-82
2022/08/18 02:40:11;;;;;;;46.30;41.37;;;19.80;99.90;;;;;;5056585;28;20539;-81
2022/08/18 02:42:38;;;;;;;48.43;43.13;;;19.80;99.90;;;;;;5056269;28;20546;-80
2022/08/18 02:45:07;;;;;;;50.83;43.40;;;19.80;99.90;;;;;;5055875;28;20992;-80
2022/08/18 02:47:34;;;;;;;53.10;45.40;;;19.80;99.90;;;;;;5057361;28;20454;-81
2022/08/18 02:50:01;;;;;;;56.77;46.30;;;19.70;99.90;;;;;;5056714;28;20532;-81
2022/08/18 02:52:31;;;;;;;62.63;46.90;;;19.80;99.90;;;;;;5057216;28;20458;-81
2022/08/18 02:54:59;;;;;;;55.80;45.10;;;19.80;99.90;;;;;;5040576;28;20871;-81
2022/08/18 02:57:26;;;;;;;58.60;45.63;;;19.80;99.90;;;;;;5057760;28;20517;-79
2022/08/18 02:59:53;;;;;;;58.50;45.20;;;19.80;99.90;;;;;;5057667;28;20532;-80
2022/08/18 03:02:22;;;;;;;58.87;46.57;;;19.80;99.90;;;;;;5055420;28;20510;-81
2022/08/18 03:04:50;;;;;;;54.50;44.90;;;19.70;99.90;;;;;;5073942;22;20523;-79
2022/08/18 03:07:17;;;;;;;66.07;50.57;;;19.70;99.90;;;;;;5047191;28;20461;-81
2022/08/18 03:09:44;;;;;;;55.20;44.40;;;19.70;99.90;;;;;;5047989;28;20459;-80
2022/08/18 03:12:11;;;;;;;64.10;47.13;;;19.70;99.90;;;;;;5042861;28;20480;-79
2022/08/18 03:14:39;;;;;;;65.20;47.43;;;19.70;99.90;;;;;;5055217;28;20507;-78
2022/08/18 03:17:08;;;;;;;66.70;48.50;;;19.70;99.90;;;;;;5056852;28;20447;-81
2022/08/18 03:19:37;;;;;;;54.47;42.80;;;19.70;99.90;;;;;;5056223;28;20948;-79
2022/08/18 03:22:04;;;;;;;63.57;49.10;;;19.70;99.90;;;;;;5056348;28;20486;-81
2022/08/18 03:24:32;;;;;;;61.93;49.10;;;19.80;99.90;;;;;;5056132;28;20471;-80
2022/08/18 03:27:00;;;;;;;62.70;48.73;;;19.80;99.90;;;;;;5056034;28;20547;-80
2022/08/18 03:29:27;;;;;;;59.07;49.10;;;19.90;99.90;;;;;;5053038;28;20539;-80
2022/08/18 03:31:54;;;;;;;60.10;47.07;;;19.90;99.90;;;;;;5048149;28;20455;-79
2022/08/18 03:34:21;;;;;;;64.70;50.13;;;19.90;99.90;;;;;;5055085;28;20562;-80
2022/08/18 03:36:51;;;;;;;56.50;45.50;;;19.90;99.90;;;;;;5056435;28;20511;-78
2022/08/18 03:39:19;;;;;;;53.27;45.20;;;19.90;99.90;;;;;;5055396;28;20451;-80
2022/08/18 03:41:46;;;;;;;55.30;46.30;;;19.80;99.90;;;;;;5055770;28;20487;-78
2022/08/18 03:44:15;;;;;;;59.00;46.90;;;19.80;99.90;;;;;;5054446;28;20546;-79
2022/08/18 03:46:44;;;;;;;60.80;48.10;;;19.80;99.90;;;;;;5057035;28;20491;-78
2022/08/18 03:49:12;;;;;;;64.70;48.13;;;19.80;99.90;;;;;;5055292;28;20483;-80
2022/08/18 03:51:45;;;;;;;80.80;57.17;;;19.90;99.90;;;;;;5055822;28;21022;-78
2022/08/18 03:54:15;;;;;;;70.07;52.00;;;19.80;99.90;;;;;;5054223;28;20561;-80
2022/08/18 03:56:43;;;;;;;73.30;51.90;;;19.80;99.90;;;;;;5056137;28;20456;-81
2022/08/18 03:59:15;;;;;;;79.50;54.70;;;19.80;99.90;;;;;;5054739;28;20646;-81
2022/08/18 04:01:43;;;;;;;72.37;53.47;;;19.80;99.90;;;;;;5047646;28;20475;-79
2022/08/18 04:04:13;;;;;;;80.07;55.17;;;19.80;99.90;;;;;;5056096;28;20479;-80
2022/08/18 04:06:44;;;;;;;69.63;50.57;;;19.90;99.90;;;;;;5056224;28;20509;-79
2022/08/18 04:09:14;;;;;;;79.90;54.63;;;19.90;99.90;;;;;;5057084;28;20463;-80
2022/08/18 04:11:42;;;;;;;83.50;56.37;;;19.90;99.90;;;;;;5056010;28;20476;-80
2022/08/18 04:14:10;;;;;;;83.77;57.00;;;19.90;99.90;;;;;;5055734;28;20478;-79
2022/08/18 04:16:37;;;;;;;84.97;57.03;;;19.80;99.90;;;;;;5054166;28;20491;-79
2022/08/18 04:19:04;;;;;;;104.57;63.47;;;19.80;99.90;;;;;;5056356;28;20452;-79
2022/08/18 04:21:32;;;;;;;89.60;59.83;;;19.70;99.90;;;;;;5055583;28;20575;-80
2022/08/18 04:24:03;;;;;;;88.07;58.17;;;19.70;99.90;;;;;;5055392;28;20559;-79
2022/08/18 04:26:33;;;;;;;89.47;57.03;;;19.80;99.90;;;;;;5055375;28;20964;-79
2022/08/18 04:29:01;;;;;;;88.93;57.00;;;19.70;99.90;;;;;;5049252;28;20631;-78
2022/08/18 04:31:28;;;;;;;94.00;60.13;;;19.80;99.90;;;;;;5044819;28;20452;-78
2022/08/18 04:33:56;;;;;;;97.57;60.40;;;19.80;99.90;;;;;;5053772;28;20550;-79
2022/08/18 04:36:23;;;;;;;90.50;56.80;;;19.80;99.90;;;;;;5055614;28;20464;-80
2022/08/18 04:38:50;;;;;;;88.67;57.43;;;19.80;99.90;;;;;;5056164;28;20456;-80
2022/08/18 04:41:17;;;;;;;89.53;57.33;;;19.90;99.90;;;;;;5055474;28;20476;-80
2022/08/18 04:43:46;;;;;;;88.07;56.90;;;19.90;99.90;;;;;;5054909;28;20470;-80
2022/08/18 04:46:13;;;;;;;102.50;64.63;;;19.90;99.90;;;;;;5056880;28;20456;-80
2022/08/18 04:48:42;;;;;;;105.77;64.30;;;19.90;99.90;;;;;;5057175;28;20448;-80
2022/08/18 04:51:12;;;;;;;98.13;58.13;;;19.90;99.90;;;;;;5056650;28;20483;-79
2022/08/18 04:53:45;;;;;;;96.90;57.37;;;19.90;99.90;;;;;;5059971;28;20444;-78
2022/08/18 04:56:20;;;;;;;105.77;63.77;;;19.90;99.90;;;;;;5060558;28;20459;-79
2022/08/18 04:58:50;;;;;;;105.27;62.10;;;19.90;99.90;;;;;;5058404;28;20547;-78
2022/08/18 05:01:17;;;;;;;97.80;56.07;;;19.80;99.90;;;;;;5051564;28;20557;-79
2022/08/18 05:03:44;;;;;;;96.63;58.90;;;19.90;99.90;;;;;;5049727;28;20460;-78
2022/08/18 05:06:11;;;;;;;126.97;70.20;;;19.90;99.90;;;;;;5041557;28;20448;-78
2022/08/18 05:08:39;;;;;;;95.43;57.43;;;19.90;99.90;;;;;;5061920;28;20490;-78
2022/08/18 05:11:06;;;;;;;100.40;59.10;;;19.90;99.90;;;;;;5063771;28;20456;-79
2022/08/18 05:13:33;;;;;;;119.20;67.47;;;19.90;99.90;;;;;;5059242;28;20542;-78
2022/08/18 05:16:02;;;;;;;101.53;57.57;;;19.90;99.90;;;;;;5059999;28;20459;-78
2022/08/18 05:18:30;;;;;;;95.10;55.63;;;20.00;99.90;;;;;;5057379;28;20456;-78
2022/08/18 05:21:00;;;;;;;87.20;54.70;;;19.90;99.90;;;;;;5058440;28;20527;-78
2022/08/18 05:23:29;;;;;;;92.73;54.10;;;20.00;99.90;;;;;;5057045;28;20818;-77
2022/08/18 05:26:01;;;;;;;97.20;56.37;;;20.10;99.90;;;;;;5059236;28;20847;-78
2022/08/18 05:28:27;;;;;;;89.23;55.07;;;20.10;99.90;;;;;;5058602;28;20467;-78
2022/08/18 05:30:55;;;;;;;94.77;54.90;;;20.10;99.90;;;;;;5059320;28;20559;-79
2022/08/18 05:33:24;;;;;;;77.83;51.07;;;20.10;99.90;;;;;;5059377;28;20456;-78
2022/08/18 05:36:02;;;;;;;83.83;50.83;;;20.20;99.90;;;;;;5059641;28;20511;-78
2022/08/18 05:38:38;;;;;;;84.97;53.37;;;20.20;99.90;;;;;;5059334;28;20527;-78
2022/08/18 05:41:10;;;;;;;81.33;49.80;;;20.20;99.90;;;;;;5060825;28;20457;-78
2022/08/18 05:43:39;;;;;;;83.77;48.60;;;20.20;99.90;;;;;;5059035;28;20462;-78
2022/08/18 05:46:09;;;;;;;67.47;46.37;;;20.20;99.90;;;;;;5060880;28;20452;-78
2022/08/18 05:48:38;;;;;;;69.67;44.50;;;20.30;99.90;;;;;;5059905;28;20487;-80
2022/08/18 05:51:13;;;;;;;72.93;47.70;;;20.30;99.90;;;;;;5055462;28;20509;-78
2022/08/18 05:56:46;;;;;;;79.90;49.30;;;20.20;99.90;;;;;;5053606;28;20443;-77
2022/08/18 05:59:17;;;;;;;85.27;49.90;;;20.30;99.90;;;;;;5053834;28;20443;-79
2022/08/18 06:01:51;;;;;;;70.50;45.47;;;20.10;99.90;;;;;;5051680;28;20579;-77
2022/08/18 06:04:26;;;;;;;75.40;46.87;;;20.20;99.90;;;;;;5052944;28;20519;-77
2022/08/18 06:06:56;;;;;;;82.10;49.03;;;20.30;99.90;;;;;;5034125;28;20452;-78
2022/08/18 06:09:28;;;;;;;92.90;55.80;;;20.40;99.90;;;;;;5051441;28;20535;-78
2022/08/18 06:12:04;;;;;;;96.27;56.60;;;20.30;99.90;;;;;;5053865;28;20538;-79
2022/08/18 06:14:31;;;;;;;100.33;54.23;;;20.20;99.90;;;;;;5053246;28;20529;-77
2022/08/18 06:17:11;;;;;;;107.60;60.50;;;20.30;99.90;;;;;;5054008;28;20832;-79
2022/08/18 06:19:49;;;;;;;85.63;50.07;;;20.20;99.90;;;;;;5052436;28;20505;-78
2022/08/18 06:22:35;;;;;;;91.77;52.50;;;20.40;99.90;;;;;;5043119;28;20634;-78
2022/08/18 06:25:09;;;;;;;85.00;49.90;;;20.40;99.90;;;;;;5046344;28;20467;-79
2022/08/18 06:27:45;;;;;;;77.00;47.33;;;20.50;99.90;;;;;;5053789;28;20546;-77
2022/08/18 06:30:20;;;;;;;104.10;55.70;;;20.50;99.90;;;;;;5053380;28;20531;-76
2022/08/18 06:33:02;;;;;;;83.33;49.10;;;20.40;99.90;;;;;;5052691;28;20454;-82
2022/08/18 06:35:36;;;;;;;79.90;46.07;;;20.40;99.90;;;;;;5053453;28;20467;-77
2022/08/18 06:38:40;;;;;;;87.67;51.07;;;20.50;99.90;;;;;;5053219;28;20481;-75
2022/08/18 06:41:13;;;;;;;82.67;47.67;;;20.50;99.90;;;;;;5052076;28;20469;-77
2022/08/18 06:43:53;;;;;;;82.97;48.93;;;20.40;99.90;;;;;;5051628;28;20881;-79
2022/08/18 06:46:24;;;;;;;83.27;50.80;;;20.40;99.90;;;;;;5053316;28;20543;-77
2022/08/18 06:48:54;;;;;;;84.57;52.43;;;20.40;99.90;;;;;;5055000;28;20458;-79
2022/08/18 06:51:26;;;;;;;78.97;46.87;;;20.40;99.90;;;;;;5055144;28;20458;-79
2022/08/18 06:53:58;;;;;;;63.37;42.90;;;20.40;99.90;;;;;;5054581;28;20526;-80
2022/08/18 06:56:32;;;;;;;65.63;42.30;;;20.40;99.90;;;;;;5055667;28;20546;-79
2022/08/18 06:59:22;;;;;;;78.47;48.20;;;20.50;99.90;;;;;;5055777;28;20509;-78
2022/08/18 07:01:54;;;;;;;70.20;41.90;;;20.40;99.90;;;;;;5054110;28;20488;-80
2022/08/18 07:04:42;;;;;;;65.53;42.30;;;20.50;99.90;;;;;;5054617;28;20570;-79
2022/08/18 07:07:31;;;;;;;67.37;42.87;;;20.60;99.90;;;;;;5056011;28;20447;-78
2022/08/18 07:09:58;;;;;;;89.40;49.90;;;20.60;99.90;;;;;;5035883;28;20504;-77
2022/08/18 07:12:28;;;;;;;68.83;44.80;;;20.40;99.90;;;;;;5053961;28;20547;-79
2022/08/18 07:14:58;;;;;;;79.67;46.57;;;20.40;99.90;;;;;;5054187;28;20563;-79
2022/08/18 07:17:28;;;;;;;93.20;51.60;;;20.40;99.90;;;;;;5055022;28;20551;-78
2022/08/18 07:20:02;;;;;;;73.27;44.53;;;20.30;99.90;;;;;;5055474;28;20459;-78
2022/08/18 07:22:30;;;;;;;77.90;46.00;;;20.40;99.90;;;;;;5053988;28;20929;-80
2022/08/18 07:25:00;;;;;;;63.80;41.13;;;20.40;99.90;;;;;;5054531;28;20846;-78
2022/08/18 07:27:43;;;;;;;70.87;44.20;;;20.50;99.90;;;;;;5054923;28;20487;-79
2022/08/18 07:30:14;;;;;;;63.97;43.60;;;20.50;99.90;;;;;;5052076;28;20452;-79
2022/08/18 07:32:46;;;;;;;71.83;43.33;;;20.50;99.90;;;;;;5053765;28;20475;-78
2022/08/18 07:35:17;;;;;;;72.60;42.87;;;20.60;99.90;;;;;;5048209;28;20886;-79
2022/08/18 07:37:56;;;;;;;66.00;44.47;;;20.50;99.90;;;;;;5036848;28;20479;-78
2022/08/18 07:40:28;;;;;;;84.37;49.53;;;20.60;99.90;;;;;;5055173;28;20510;-79
2022/08/18 07:43:00;;;;;;;68.50;44.20;;;20.40;99.90;;;;;;5053531;28;20943;-79
2022/08/18 07:45:35;;;;;;;65.90;43.10;;;20.40;99.90;;;;;;5051910;28;20483;-78
2022/08/18 07:48:09;;;;;;;66.90;42.90;;;20.30;99.90;;;;;;5045550;28;20444;-79
2022/08/18 07:50:45;;;;;;;57.67;39.57;;;20.40;99.90;;;;;;5034909;28;20609;-79
2022/08/18 07:53:34;;;;;;;69.30;43.83;;;20.50;99.90;;;;;;5050807;28;20447;-79
2022/08/18 07:56:04;;;;;;;72.30;43.97;;;20.40;99.90;;;;;;5054658;28;20467;-81
2022/08/18 07:58:37;;;;;;;77.27;46.90;;;20.40;99.90;;;;;;5054321;28;20566;-79
2022/08/18 08:01:14;;;;;;;62.07;41.80;;;20.50;99.90;;;;;;5054381;28;20459;-79
2022/08/18 08:03:49;;;;;;;70.00;45.20;;;20.50;99.90;;;;;;5053023;28;20522;-77
2022/08/18 08:06:23;;;;;;;75.57;47.07;;;20.50;99.90;;;;;;5054200;28;20448;-79
2022/08/18 08:09:00;;;;;;;82.30;50.53;;;20.40;99.90;;;;;;5054575;28;20465;-78
2022/08/18 08:11:40;;;;;;;70.70;44.47;;;20.40;99.90;;;;;;5054051;28;21070;-78
2022/08/18 08:14:24;;;;;;;62.37;40.07;;;20.40;99.90;;;;;;5053172;28;20891;-78
2022/08/18 08:17:00;;;;;;;63.57;42.93;;;20.60;99.90;;;;;;5049767;28;20544;-80
2022/08/18 08:19:45;;;;;;;73.60;44.57;;;20.40;99.90;;;;;;5036157;28;20539;-79
2022/08/18 08:22:18;;;;;;;66.87;41.47;;;20.50;99.90;;;;;;5054486;28;20578;-80
2022/08/18 08:24:56;;;;;;;68.20;42.87;;;20.60;99.90;;;;;;5053242;28;20476;-79
2022/08/18 08:27:30;;;;;;;58.43;40.00;;;20.80;99.90;;;;;;5054337;28;20901;-79
2022/08/18 08:30:05;;;;;;;67.33;42.70;;;20.80;99.90;;;;;;5053683;28;20993;-80
2022/08/18 08:32:34;;;;;;;65.93;40.80;;;20.80;99.90;;;;;;5035908;28;20530;-79
2022/08/18 08:35:08;;;;;;;67.50;41.67;;;20.80;99.90;;;;;;5052962;28;20543;-79
2022/08/18 08:37:42;;;;;;;64.40;41.10;;;20.90;99.90;;;;;;5054528;28;20517;-79
2022/08/18 08:40:17;;;;;;;61.00;39.97;;;21.00;99.90;;;;;;5053320;28;20833;-80
2022/08/18 08:42:51;;;;;;;55.57;38.20;;;21.20;99.90;;;;;;5055294;28;20529;-79
2022/08/18 08:45:23;;;;;;;61.97;39.23;;;21.40;99.90;;;;;;5078173;28;20983;-80
2022/08/18 08:47:59;;;;;;;54.00;36.57;;;21.50;99.90;;;;;;5079773;28;20451;-80
2022/08/18 08:50:29;;;;;;;51.20;36.50;;;21.50;99.90;;;;;;5065672;28;20490;-78
2022/08/18 08:53:00;;;;;;;58.00;40.47;;;21.50;99.90;;;;;;5057568;28;20531;-79
2022/08/18 08:55:32;;;;;;;54.90;40.07;;;21.60;99.90;;;;;;5058287;28;20507;-79
2022/08/18 08:58:11;;;;;;;51.20;38.37;;;21.60;99.90;;;;;;5057476;28;20452;-79
2022/08/18 09:00:41;;;;;;;53.07;38.00;;;21.70;99.90;;;;;;5049876;28;20464;-80
2022/08/18 09:03:24;;;;;;;57.37;41.07;;;21.70;99.90;;;;;;5056437;28;20918;-80
2022/08/18 09:06:00;;;;;;;50.70;37.00;;;21.50;99.90;;;;;;5057444;28;21089;-78
2022/08/18 09:08:43;;;;;;;49.90;36.40;;;21.70;99.90;;;;;;5057649;28;20875;-79
2022/08/18 09:11:26;;;;;;;53.50;39.83;;;21.70;99.90;;;;;;5056784;28;20905;-79
2022/08/18 09:14:11;;;;;;;47.03;38.00;;;21.70;99.90;;;;;;5047689;28;20452;-78
2022/08/18 09:16:49;;;;;;;53.57;39.30;;;21.80;99.90;;;;;;5055899;28;20527;-79
2022/08/18 09:19:39;;;;;;;46.10;36.80;;;21.80;99.90;;;;;;5057088;28;20888;-79
2022/08/18 09:22:16;;;;;;;48.13;38.77;;;22.00;99.90;;;;;;5056638;28;20501;-79
2022/08/18 09:24:48;;;;;;;49.63;34.30;;;21.70;99.90;;;;;;5056100;28;20470;-79
2022/08/18 09:27:39;;;;;;;52.53;38.33;;;21.80;99.90;;;;;;5056427;28;20456;-80
2022/08/18 09:30:08;;;;;;;42.00;34.33;;;21.80;99.90;;;;;;5056554;28;20830;-80
2022/08/18 09:32:56;;;;;;;45.30;35.27;;;21.90;99.90;;;;;;5048320;28;20447;-81
2022/08/18 09:35:38;;;;;;;47.83;38.07;;;22.00;99.90;;;;;;5055991;28;20887;-79
2022/08/18 09:44:11;;;;;;;47.93;35.83;;;22.10;99.90;;;;;;5052221;28;20522;-79
2022/08/18 09:46:54;;;;;;;45.17;35.80;;;22.30;99.90;;;;;;5057532;28;20495;-79
2022/08/18 09:49:46;;;;;;;56.87;44.40;;;22.30;99.90;;;;;;5054291;28;20466;-78
2022/08/18 09:52:49;;;;;;;44.13;37.33;;;21.90;99.90;;;;;;5049234;28;20468;-80
2022/08/18 09:56:04;;;;;;;56.97;44.43;;;22.10;99.90;;;;;;4995652;28;20468;-80
2022/08/18 09:58:57;;;;;;;48.50;39.00;;;22.10;99.90;;;;;;5045579;28;20559;-80
2022/08/18 10:01:49;;;;;;;46.70;38.13;;;22.10;99.90;;;;;;5055391;28;20466;-81
2022/08/18 10:04:32;;;;;;;49.23;40.10;;;22.00;99.90;;;;;;5053841;28;20566;-79
2022/08/18 10:07:32;;;;;;;49.07;41.03;;;22.00;99.90;;;;;;5046206;28;20488;-80
2022/08/18 10:10:23;;;;;;;63.00;45.50;;;22.10;99.90;;;;;;5042339;28;20452;-81
2022/08/18 10:13:14;;;;;;;47.00;41.33;;;22.10;99.90;;;;;;5058456;28;20861;-79
2022/08/18 10:15:50;;;;;;;46.47;39.50;;;22.20;99.90;;;;;;5055647;28;20563;-80
2022/08/18 10:18:35;;;;;;;43.87;37.90;;;22.30;99.90;;;;;;5055399;28;20531;-80
2022/08/18 10:21:09;;;;;;;47.40;39.00;;;22.30;99.90;;;;;;5055080;28;20478;-78
2022/08/18 10:23:53;;;;;;;52.43;41.13;;;22.30;99.90;;;;;;5054365;28;20577;-78
2022/08/18 10:27:07;;;;;;;47.73;38.07;;;22.20;99.90;;;;;;5046922;28;20448;-79
2022/08/18 10:29:49;;;;;;;49.07;39.10;;;22.30;99.90;;;;;;5055773;28;20994;-79
2022/08/18 10:32:44;;;;;;;47.13;37.70;;;22.40;99.90;;;;;;5049858;28;20448;-79
2022/08/18 10:35:57;;;;;;;54.20;42.67;;;22.30;99.90;;;;;;5035439;28;21027;-77
2022/08/18 10:38:52;;;;;;;45.03;37.70;;;22.30;99.90;;;;;;4980711;28;20464;-80
2022/08/18 10:41:28;;;;;;;50.00;40.70;;;22.40;99.90;;;;;;4994090;28;20466;-78
2022/08/18 10:43:56;;;;;;;42.53;36.47;;;22.50;99.90;;;;;;5041108;28;20587;-80
2022/08/18 10:46:26;;;;;;;46.03;41.03;;;22.60;99.90;;;;;;5056404;28;20531;-79
2022/08/18 10:49:02;;;;;;;45.00;39.60;;;22.50;99.90;;;;;;5055160;28;20542;-79
2022/08/18 10:51:45;;;;;;;43.23;35.30;;;22.60;99.90;;;;;;5055459;28;20550;-80
2022/08/18 10:54:21;;;;;;;43.50;38.07;;;22.50;99.90;;;;;;5051943;28;21023;-82
2022/08/18 10:56:52;;;;;;;43.37;35.40;;;22.60;99.90;;;;;;5055522;28;20524;-80
2022/08/18 10:59:28;;;;;;;38.30;32.90;;;22.70;99.90;;;;;;5055818;28;20458;-79
2022/08/18 11:02:09;;;;;;;38.30;34.10;;;22.70;99.90;;;;;;5082388;22;20546;-84
2022/08/18 11:04:42;;;;;;;37.53;33.37;;;22.80;99.90;;;;;;5065351;28;21039;-83
2022/08/18 11:07:14;;;;;;;42.13;35.77;;;22.80;99.90;;;;;;5059373;28;20992;-84
2022/08/18 11:09:42;;;;;;;36.60;32.60;;;22.80;99.90;;;;;;5046427;28;20491;-84
2022/08/18 11:12:13;;;;;;;35.07;31.40;;;23.00;99.90;;;;;;5060029;28;20506;-84
2022/08/18 11:15:06;;;;;;;31.37;28.10;;;23.10;99.90;;;;;;5058781;28;20444;-84
2022/08/18 11:17:46;;;;;;;39.00;34.80;;;23.30;99.90;;;;;;5054074;28;20464;-83
2022/08/18 11:20:16;;;;;;;34.40;30.93;;;23.40;99.90;;;;;;5074590;28;20459;-83
2022/08/18 11:22:53;;;;;;;32.73;29.57;;;23.70;99.90;;;;;;5055312;28;20499;-84
2022/08/18 11:25:25;;;;;;;36.70;32.90;;;23.80;99.90;;;;;;5058379;28;21002;-83
2022/08/18 11:27:52;;;;;;;35.83;32.03;;;23.80;99.90;;;;;;5065602;28;21017;-84
2022/08/18 11:30:20;;;;;;;35.43;31.90;;;23.90;99.90;;;;;;5061105;28;20618;-83
2022/08/18 11:32:50;;;;;;;35.93;32.23;;;23.80;99.90;;;;;;5057758;28;20480;-83
2022/08/18 11:35:20;;;;;;;32.33;28.97;;;23.80;99.90;;;;;;5059155;28;20448;-83
2022/08/18 11:37:49;;;;;;;30.13;26.80;;;23.60;99.90;;;;;;5058369;28;21039;-82
2022/08/18 11:40:40;;;;;;;31.43;26.83;;;23.50;99.90;;;;;;5053552;28;20929;-83
2022/08/18 11:43:16;;;;;;;28.23;25.30;;;23.60;99.90;;;;;;5052967;28;20513;-83
2022/08/18 11:45:53;;;;;;;27.37;24.70;;;23.60;99.90;;;;;;5061968;28;20455;-83
2022/08/18 11:48:33;;;;;;;24.50;22.00;;;23.50;99.90;;;;;;5061792;28;20519;-83
2022/08/18 11:51:11;;;;;;;25.87;21.60;;;23.50;99.90;;;;;;5059588;28;20451;-83
2022/08/18 11:53:42;;;;;;;19.17;17.20;;;23.50;99.90;;;;;;5056923;28;20503;-81
2022/08/18 11:56:23;;;;;;;17.53;15.60;;;23.50;99.90;;;;;;5059707;28;20864;-82
2022/08/18 11:58:53;;;;;;;15.70;14.00;;;23.60;99.90;;;;;;5059249;28;20458;-81
2022/08/18 12:01:37;;;;;;;15.93;14.53;;;23.60;99.90;;;;;;5059052;28;20455;-83
2022/08/18 12:04:16;;;;;;;13.47;11.80;;;23.70;99.90;;;;;;5057785;28;20545;-82
2022/08/18 12:06:58;;;;;;;15.07;13.67;;;23.80;99.90;;;;;;5058834;28;20444;-82
2022/08/18 12:09:33;;;;;;;16.33;13.67;;;23.90;99.90;;;;;;5057871;28;20466;-82
2022/08/18 12:12:05;;;;;;;14.83;13.47;;;23.90;99.90;;;;;;5057412;28;20558;-82
2022/08/18 12:14:53;;;;;;;15.13;13.07;;;23.90;99.90;;;;;;5059975;28;20483;-81
2022/08/18 12:17:20;;;;;;;15.07;13.47;;;23.90;99.90;;;;;;5064394;28;20452;-81
2022/08/18 12:19:46;;;;;;;14.50;11.90;;;24.00;99.90;;;;;;5062690;28;20479;-81
2022/08/18 12:22:17;;;;;;;13.20;11.90;;;24.00;99.90;;;;;;5063136;28;20502;-81
2022/08/18 12:24:45;;;;;;;11.73;10.67;;;23.90;99.90;;;;;;5065009;28;20510;-81
2022/08/18 12:27:15;;;;;;;13.07;11.87;;;23.90;99.90;;;;;;5065199;28;20448;-81
2022/08/18 12:29:42;;;;;;;12.00;10.63;;;24.00;99.90;;;;;;5065645;28;20452;-82
2022/08/18 12:32:09;;;;;;;12.43;11.00;;;24.10;99.90;;;;;;5064606;28;20480;-81
2022/08/18 12:34:36;;;;;;;12.33;11.30;;;24.20;99.90;;;;;;5065302;28;20474;-82
2022/08/18 12:37:05;;;;;;;13.50;11.40;;;24.30;99.90;;;;;;5064782;28;20530;-82
2022/08/18 12:39:32;;;;;;;12.00;10.90;;;24.50;99.90;;;;;;5064964;28;20456;-82
2022/08/18 12:41:59;;;;;;;14.23;11.80;;;24.50;99.90;;;;;;5063684;28;20480;-81
2022/08/18 12:44:27;;;;;;;11.37;10.37;;;24.60;99.90;;;;;;5066686;28;20555;-81
2022/08/18 12:46:56;;;;;;;15.20;13.90;;;24.70;99.90;;;;;;5066667;28;20482;-82
2022/08/18 12:49:24;;;;;;;15.53;14.03;;;24.70;99.90;;;;;;5064911;28;20460;-81
2022/08/18 12:51:54;;;;;;;13.27;12.17;;;24.60;99.90;;;;;;5064226;28;20503;-82
2022/08/18 12:54:21;;;;;;;14.77;13.40;;;24.70;99.90;;;;;;5043884;28;20437;-80
2022/08/18 12:56:51;;;;;;;14.13;12.73;;;24.90;99.90;;;;;;5044003;28;20452;-80
2022/08/18 12:59:18;;;;;;;12.37;11.17;;;24.70;99.90;;;;;;5064113;28;20495;-80
2022/08/18 13:01:47;;;;;;;13.97;12.57;;;24.80;99.90;;;;;;5062294;28;20441;-81
2022/08/18 13:04:14;;;;;;;12.47;11.37;;;24.80;99.90;;;;;;5059660;28;20548;-80
2022/08/18 13:06:50;;;;;;;11.87;10.63;;;24.70;99.90;;;;;;5061800;28;20439;-80
2022/08/18 13:09:17;;;;;;;16.70;15.20;;;24.90;99.90;;;;;;5064428;28;20478;-80